createdAt,value
2019-04-20T00:00:50.709Z,59.62
2019-04-20T00:01:45.102Z,59.43
2019-04-20T00:02:51.130Z,59.33
2019-04-20T00:03:46.547Z,59.33
2019-04-20T00:04:45.194Z,59.23
2019-04-20T00:05:45.494Z,58.47
2019-04-20T00:06:48.567Z,58.37
2019-04-20T00:07:45.870Z,58.37
2019-04-20T00:08:45.955Z,57.90
2019-04-20T00:09:50.206Z,57.48
2019-04-20T00:10:54.276Z,58.15
2019-04-20T00:11:53.604Z,58.25
2019-04-20T00:13:00.977Z,58.06
2019-04-20T00:13:52.960Z,58.06
2019-04-20T00:14:44.173Z,58.09
2019-04-20T00:15:45.086Z,58.37
2019-04-20T00:16:44.215Z,58.06
2019-04-20T00:17:50.837Z,57.58
2019-04-20T00:18:48.849Z,57.32
2019-04-20T00:19:47.800Z,57.77
2019-04-20T00:20:43.889Z,57.29
2019-04-20T00:21:49.584Z,57.80
2019-04-20T00:22:48.664Z,57.77
2019-04-20T00:23:46.224Z,58.09
2019-04-20T00:24:43.943Z,58.54
2019-04-20T00:25:54.371Z,58.44
2019-04-20T00:27:08.478Z,58.44
2019-04-20T00:27:59.532Z,58.25
2019-04-20T00:29:00.250Z,58.92
2019-04-20T00:29:58.827Z,58.54
2019-04-20T00:31:00.025Z,59.11
2019-04-20T00:31:54.259Z,59.94
2019-04-20T00:32:55.513Z,59.75
2019-04-20T00:33:52.770Z,59.66
2019-04-20T00:34:45.392Z,59.84
2019-04-20T00:35:42.421Z,60.61
2019-04-20T00:36:43.322Z,60.23
2019-04-20T00:37:43.467Z,60.04
2019-04-20T00:38:48.619Z,59.94
2019-04-20T00:39:42.726Z,60.80
2019-04-20T00:40:43.340Z,60.90
2019-04-20T00:41:49.008Z,60.33
2019-04-20T00:42:48.481Z,60.52
2019-04-20T00:43:42.523Z,61.19
2019-04-20T00:44:45.512Z,60.99
2019-04-20T00:45:49.460Z,60.61
2019-04-20T00:46:58.852Z,60.61
2019-04-20T00:47:52.757Z,60.42
2019-04-20T00:48:51.862Z,60.52
2019-04-20T00:49:52.273Z,60.33
2019-04-20T00:50:57.250Z,60.99
2019-04-20T00:52:10.244Z,60.04
2019-04-20T00:52:54.369Z,60.52
2019-04-20T00:53:47.936Z,60.90
2019-04-20T00:54:41.293Z,60.52
2019-04-20T00:55:41.063Z,59.94
2019-04-20T00:56:41.350Z,60.23
2019-04-20T00:57:48.549Z,60.52
2019-04-20T00:58:59.287Z,60.52
2019-04-20T00:59:59.144Z,59.56
2019-04-20T01:01:04.207Z,59.18
2019-04-20T01:01:59.917Z,59.18
2019-04-20T01:02:50.493Z,58.98
2019-04-20T01:04:04.800Z,59.47
2019-04-20T01:04:57.936Z,59.08
2019-04-20T01:06:04.281Z,59.37
2019-04-20T01:06:54.150Z,59.37
2019-04-20T01:07:47.009Z,59.27
2019-04-20T01:08:40.227Z,58.51
2019-04-20T01:09:39.732Z,58.80
2019-04-20T01:10:46.241Z,58.86
2019-04-20T01:11:43.209Z,59.91
2019-04-20T01:12:42.075Z,59.34
2019-04-20T01:13:46.114Z,59.44
2019-04-20T01:14:46.609Z,58.95
2019-04-20T01:15:48.822Z,59.15
2019-04-20T01:16:47.018Z,59.63
2019-04-20T01:17:41.526Z,59.44
2019-04-20T01:18:39.014Z,58.95
2019-04-20T01:19:38.934Z,59.05
2019-04-20T01:20:38.968Z,59.24
2019-04-20T01:21:44.909Z,59.15
2019-04-20T01:22:45.593Z,59.05
2019-04-20T01:23:46.131Z,59.63
2019-04-20T01:24:43.264Z,59.24
2019-04-20T01:25:42.266Z,59.34
2019-04-20T01:26:43.715Z,59.34
2019-04-20T01:27:51.528Z,58.95
2019-04-20T01:28:52.799Z,59.44
2019-04-20T01:29:44.351Z,59.91
2019-04-20T01:30:44.636Z,59.81
2019-04-20T01:31:52.965Z,59.41
2019-04-20T01:32:57.600Z,59.44
2019-04-20T01:33:50.872Z,59.53
2019-04-20T01:34:47.671Z,59.72
2019-04-20T01:35:53.503Z,59.34
2019-04-20T01:36:55.638Z,59.81
2019-04-20T01:37:57.517Z,59.34
2019-04-20T01:38:51.297Z,59.81
2019-04-20T01:39:44.297Z,59.72
2019-04-20T01:40:38.153Z,59.91
2019-04-20T01:41:37.224Z,59.91
2019-04-20T01:42:38.298Z,59.81
2019-04-20T01:43:37.462Z,60.10
2019-04-20T01:44:43.370Z,60.68
2019-04-20T01:45:40.498Z,60.49
2019-04-20T01:46:39.119Z,60.20
2019-04-20T01:47:42.101Z,59.91
2019-04-20T01:48:38.659Z,59.81
2019-04-20T01:49:38.492Z,59.72
2019-04-20T01:50:42.037Z,59.91
2019-04-20T01:51:47.055Z,60.36
2019-04-20T01:52:51.762Z,60.39
2019-04-20T01:53:50.367Z,60.07
2019-04-20T01:55:02.587Z,60.64
2019-04-20T01:55:53.064Z,60.36
2019-04-20T01:56:49.753Z,60.46
2019-04-20T01:57:54.574Z,60.46
2019-04-20T01:58:52.409Z,60.27
2019-04-20T01:59:47.079Z,59.78
2019-04-20T02:00:40.113Z,59.88
2019-04-20T02:01:39.180Z,59.69
2019-04-20T02:02:42.189Z,59.78
2019-04-20T02:03:40.271Z,59.78
2019-04-20T02:04:40.470Z,59.98
2019-04-20T02:05:37.293Z,59.88
2019-04-20T02:06:39.858Z,60.17
2019-04-20T02:07:41.726Z,59.41
2019-04-20T02:08:35.821Z,59.41
2019-04-20T02:09:43.384Z,59.98
2019-04-20T02:10:44.372Z,59.78
2019-04-20T02:11:39.592Z,59.59
2019-04-20T02:12:37.934Z,59.31
2019-04-20T02:13:42.157Z,59.41
2019-04-20T02:14:42.679Z,59.22
2019-04-20T02:15:40.390Z,58.93
2019-04-20T02:16:41.795Z,60.07
2019-04-20T02:17:41.000Z,59.31
2019-04-20T02:18:44.159Z,59.59
2019-04-20T02:19:49.214Z,59.50
2019-04-20T02:20:56.820Z,59.50
2019-04-20T02:21:51.803Z,58.64
2019-04-20T02:22:53.757Z,58.54
2019-04-20T02:23:44.048Z,58.93
2019-04-20T02:24:34.036Z,59.31
2019-04-20T02:25:34.482Z,59.41
2019-04-20T02:26:34.758Z,59.69
2019-04-20T02:27:38.635Z,59.88
2019-04-20T02:29:02.052Z,59.59
2019-04-20T02:29:59.187Z,59.88
2019-04-20T02:31:20.740Z,59.31
2019-04-20T02:32:12.170Z,58.93
2019-04-20T02:33:18.419Z,59.09
2019-04-20T02:34:03.909Z,58.83
2019-04-20T02:35:01.621Z,59.19
2019-04-20T02:36:10.348Z,58.93
2019-04-20T02:41:13.504Z,59.41
2019-04-20T02:42:14.620Z,59.59
2019-04-20T02:44:18.024Z,59.76
2019-04-20T02:45:14.234Z,59.76
2019-04-20T02:46:04.017Z,60.14
2019-04-20T02:47:08.460Z,59.95
2019-04-20T02:48:17.806Z,60.33
2019-04-20T02:49:12.962Z,60.14
2019-04-20T02:51:06.254Z,60.42
2019-04-20T02:52:24.947Z,60.14
2019-04-20T02:53:13.100Z,61.29
2019-04-20T02:54:10.995Z,60.33
2019-04-20T02:56:08.300Z,60.24
2019-04-20T02:57:07.301Z,60.21
2019-04-20T02:58:18.695Z,60.78
2019-04-20T02:59:29.688Z,60.42
2019-04-20T03:00:09.173Z,60.42
2019-04-20T03:00:52.356Z,59.95
2019-04-20T03:01:50.158Z,59.95
2019-04-20T03:02:42.922Z,60.42
2019-04-20T03:03:36.559Z,60.14
2019-04-20T03:04:40.270Z,60.61
2019-04-20T03:05:41.169Z,60.39
2019-04-20T03:06:48.426Z,60.61
2019-04-20T03:07:50.452Z,60.39
2019-04-20T03:08:54.551Z,60.14
2019-04-20T03:09:51.488Z,59.56
2019-04-20T03:10:52.661Z,59.76
2019-04-20T03:11:59.634Z,59.38
2019-04-20T03:12:52.152Z,59.56
2019-04-20T03:13:53.226Z,59.82
2019-04-20T03:14:44.982Z,59.63
2019-04-20T03:15:48.158Z,58.97
2019-04-20T03:16:45.821Z,59.34
2019-04-20T03:17:51.064Z,59.28
2019-04-20T03:18:44.657Z,59.28
2019-04-20T03:19:44.823Z,59.73
2019-04-20T03:20:53.637Z,59.53
2019-04-20T03:21:51.595Z,59.92
2019-04-20T03:23:11.168Z,60.11
2019-04-20T03:23:50.912Z,60.58
2019-04-20T03:24:54.368Z,60.21
2019-04-20T03:25:55.679Z,60.58
2019-04-20T03:26:50.585Z,60.30
2019-04-20T03:27:44.998Z,60.49
2019-04-20T03:28:44.120Z,60.39
2019-04-20T03:29:46.997Z,60.68
2019-04-20T03:31:22.929Z,60.97
2019-04-20T03:34:15.596Z,62.30
2019-04-20T03:36:06.087Z,62.40
2019-04-20T03:36:53.159Z,61.73
2019-04-20T03:37:48.500Z,62.02
2019-04-20T03:38:52.211Z,61.83
2019-04-20T03:39:42.984Z,62.21
2019-04-20T03:40:42.732Z,61.92
2019-04-20T03:41:34.950Z,62.21
2019-04-20T03:42:28.791Z,62.68
2019-04-20T03:43:28.713Z,61.54
2019-04-20T03:44:30.929Z,60.49
2019-04-20T03:45:35.034Z,60.21
2019-04-20T03:46:37.538Z,60.30
2019-04-20T03:47:38.569Z,59.92
2019-04-20T03:48:41.305Z,59.34
2019-04-20T03:50:49.191Z,58.97
2019-04-20T03:51:46.980Z,59.63
2019-04-20T03:52:43.169Z,59.73
2019-04-20T03:53:43.322Z,59.34
2019-04-20T03:54:39.454Z,59.34
2019-04-20T03:55:46.707Z,60.17
2019-04-20T03:56:48.019Z,60.27
2019-04-20T03:57:49.815Z,60.55
2019-04-20T03:58:44.314Z,60.87
2019-04-20T03:59:50.902Z,60.84
2019-04-20T04:00:42.509Z,60.49
2019-04-20T04:02:08.731Z,60.49
2019-04-20T04:02:57.678Z,60.68
2019-04-20T04:04:05.358Z,60.97
2019-04-20T04:04:46.567Z,60.94
2019-04-20T04:05:41.019Z,61.32
2019-04-20T04:06:34.045Z,61.60
2019-04-20T04:07:32.351Z,61.80
2019-04-20T04:08:35.407Z,61.63
2019-04-20T04:09:35.420Z,61.63
2019-04-20T04:10:40.910Z,61.35
2019-04-20T04:11:37.910Z,61.44
2019-04-20T04:12:30.371Z,61.44
2019-04-20T04:13:25.050Z,61.63
2019-04-20T04:14:26.069Z,61.63
2019-04-20T04:15:25.395Z,61.54
2019-04-20T04:16:32.885Z,60.87
2019-04-20T04:17:28.819Z,61.25
2019-04-20T04:18:31.813Z,61.16
2019-04-20T04:19:31.216Z,61.25
2019-04-20T04:20:33.241Z,61.41
2019-04-20T04:21:38.295Z,61.25
2019-04-20T04:22:40.032Z,60.87
2019-04-20T04:23:40.334Z,60.97
2019-04-20T04:24:31.536Z,60.39
2019-04-20T04:25:35.405Z,60.87
2019-04-20T04:26:38.966Z,60.68
2019-04-20T04:27:41.723Z,61.44
2019-04-20T04:28:41.065Z,60.58
2019-04-20T04:29:42.940Z,61.07
2019-04-20T04:30:36.779Z,60.97
2019-04-20T04:31:45.587Z,60.68
2019-04-20T04:33:09.032Z,60.78
2019-04-20T04:34:45.944Z,60.84
2019-04-20T04:35:32.331Z,60.65
2019-04-20T04:36:40.527Z,60.84
2019-04-20T04:37:40.543Z,59.89
2019-04-20T04:39:00.944Z,60.08
2019-04-20T04:39:46.962Z,60.27
2019-04-20T04:40:49.808Z,60.84
2019-04-20T04:41:43.953Z,60.55
2019-04-20T04:42:46.558Z,60.84
2019-04-20T04:43:40.093Z,60.17
2019-04-20T04:44:35.473Z,60.17
2019-04-20T04:45:26.746Z,60.75
2019-04-20T04:46:22.774Z,60.55
2019-04-20T04:47:22.225Z,60.55
2019-04-20T04:48:28.376Z,60.46
2019-04-20T04:49:29.589Z,60.65
2019-04-20T04:50:26.195Z,60.08
2019-04-20T04:51:28.072Z,60.65
2019-04-20T04:52:28.789Z,60.87
2019-04-20T04:53:30.276Z,60.97
2019-04-20T04:54:27.950Z,60.39
2019-04-20T04:55:32.748Z,60.94
2019-04-20T04:56:23.966Z,61.07
2019-04-20T04:57:22.250Z,61.07
2019-04-20T04:58:21.665Z,60.30
2019-04-20T04:59:21.439Z,60.30
2019-04-20T05:00:26.038Z,60.58
2019-04-20T05:01:25.957Z,60.30
2019-04-20T05:02:22.725Z,60.68
2019-04-20T05:03:38.663Z,60.39
2019-04-20T05:04:43.073Z,60.49
2019-04-20T05:05:45.286Z,60.39
2019-04-20T05:06:35.511Z,60.39
2019-04-20T05:07:35.238Z,60.30
2019-04-20T05:08:26.134Z,61.16
2019-04-20T05:09:21.808Z,60.68
2019-04-20T05:10:20.697Z,60.49
2019-04-20T05:11:21.617Z,61.25
2019-04-20T05:12:24.260Z,61.16
2019-04-20T05:13:20.122Z,60.97
2019-04-20T05:14:26.214Z,60.78
2019-04-20T05:15:32.170Z,60.87
2019-04-20T05:16:40.901Z,60.87
2019-04-20T05:17:40.664Z,60.87
2019-04-20T05:18:44.806Z,60.87
2019-04-20T05:19:42.872Z,60.58
2019-04-20T05:20:41.683Z,60.58
2019-04-20T05:21:38.910Z,60.49
2019-04-20T05:22:37.761Z,61.16
2019-04-20T05:23:31.938Z,61.25
2019-04-20T05:24:33.802Z,61.63
2019-04-20T05:25:36.557Z,60.97
2019-04-20T05:26:36.113Z,60.58
2019-04-20T05:27:39.147Z,60.78
2019-04-20T05:28:30.592Z,61.07
2019-04-20T05:29:24.986Z,61.25
2019-04-20T05:30:19.995Z,60.78
2019-04-20T05:31:18.725Z,60.97
2019-04-20T05:32:29.479Z,60.58
2019-04-20T05:33:28.098Z,61.07
2019-04-20T05:34:38.500Z,60.97
2019-04-20T05:35:36.447Z,60.87
2019-04-20T05:36:37.281Z,60.21
2019-04-20T05:37:41.329Z,60.11
2019-04-20T05:38:42.011Z,60.39
2019-04-20T05:39:38.508Z,60.30
2019-04-20T05:40:45.040Z,60.21
2019-04-20T05:41:39.845Z,60.14
2019-04-20T05:42:41.208Z,59.85
2019-04-20T05:43:38.316Z,59.85
2019-04-20T05:44:41.531Z,59.95
2019-04-20T05:45:32.700Z,60.42
2019-04-20T05:46:36.903Z,60.33
2019-04-20T05:47:36.227Z,60.14
2019-04-20T05:48:41.232Z,60.24
2019-04-20T05:49:34.825Z,60.14
2019-04-20T05:50:37.992Z,60.24
2019-04-20T05:52:43.849Z,60.04
2019-04-20T05:53:38.559Z,59.38
2019-04-20T05:54:40.332Z,59.95
2019-04-20T05:55:40.083Z,59.66
2019-04-20T05:56:43.806Z,59.28
2019-04-20T05:57:34.902Z,59.09
2019-04-20T05:58:32.739Z,59.28
2019-04-20T05:59:47.077Z,59.78
2019-04-20T06:00:45.906Z,59.88
2019-04-20T06:01:37.943Z,59.59
2019-04-20T06:02:36.707Z,59.02
2019-04-20T06:03:35.101Z,58.64
2019-04-20T06:04:46.215Z,58.73
2019-04-20T06:05:46.000Z,59.12
2019-04-20T06:06:43.364Z,58.36
2019-04-20T06:07:35.973Z,58.45
2019-04-20T06:09:42.964Z,58.45
2019-04-20T06:10:38.199Z,58.45
2019-04-20T06:11:52.572Z,58.45
2019-04-20T06:12:35.931Z,58.16
2019-04-20T06:13:31.342Z,58.26
2019-04-20T06:14:25.737Z,58.54
2019-04-20T06:15:37.037Z,58.45
2019-04-20T06:16:40.995Z,58.54
2019-04-20T06:17:37.361Z,58.45
2019-04-20T06:18:30.782Z,58.26
2019-04-20T06:19:36.912Z,58.00
2019-04-20T06:20:37.991Z,57.71
2019-04-20T06:21:37.743Z,57.04
2019-04-20T06:22:42.824Z,56.85
2019-04-20T06:23:50.859Z,56.76
2019-04-20T06:24:45.591Z,57.24
2019-04-20T06:25:47.412Z,56.57
2019-04-20T06:26:43.723Z,56.28
2019-04-20T06:27:36.197Z,55.32
2019-04-20T06:28:32.760Z,54.85
2019-04-20T06:29:37.983Z,54.27
2019-04-20T06:30:32.185Z,54.75
2019-04-20T06:31:35.897Z,55.13
2019-04-20T06:32:33.349Z,55.23
2019-04-20T06:33:56.066Z,55.71
2019-04-20T06:34:46.060Z,55.52
2019-04-20T06:35:51.635Z,56.09
2019-04-20T06:36:38.645Z,54.78
2019-04-20T06:37:40.464Z,54.30
2019-04-20T06:38:48.316Z,54.88
2019-04-20T06:39:44.694Z,55.32
2019-04-20T06:41:51.862Z,55.26
2019-04-20T06:42:34.810Z,55.26
2019-04-20T06:43:40.840Z,55.54
2019-04-20T06:45:33.558Z,54.88
2019-04-20T06:46:36.149Z,54.78
2019-04-20T06:47:30.748Z,54.68
2019-04-20T06:48:40.177Z,55.54
2019-04-20T06:49:33.162Z,55.54
2019-04-20T06:50:32.976Z,55.54
2019-04-20T06:51:34.616Z,55.93
2019-04-20T06:52:42.714Z,56.21
2019-04-20T06:53:36.963Z,55.35
2019-04-20T06:54:25.601Z,55.35
2019-04-20T06:55:38.263Z,54.49
2019-04-20T06:56:35.330Z,53.44
2019-04-20T06:57:35.773Z,53.75
2019-04-20T06:58:43.818Z,54.30
2019-04-20T06:59:38.999Z,54.88
2019-04-20T07:00:30.932Z,54.68
2019-04-20T07:01:43.344Z,54.49
2019-04-20T07:02:37.259Z,55.10
2019-04-20T07:03:48.137Z,55.19
2019-04-20T07:04:43.282Z,54.71
2019-04-20T07:05:34.960Z,54.61
2019-04-20T07:07:29.394Z,55.38
2019-04-20T07:08:51.122Z,53.75
2019-04-20T07:09:42.029Z,53.08
2019-04-20T07:10:37.388Z,53.37
2019-04-20T07:11:28.197Z,53.66
2019-04-20T07:12:27.247Z,53.94
2019-04-20T07:13:25.410Z,54.61
2019-04-20T07:14:25.771Z,54.14
2019-04-20T07:15:28.711Z,53.94
2019-04-20T07:16:28.946Z,54.04
2019-04-20T07:17:40.789Z,53.94
2019-04-20T07:18:35.790Z,53.94
2019-04-20T07:19:31.348Z,53.85
2019-04-20T07:20:42.580Z,53.94
2019-04-20T07:21:43.716Z,54.14
2019-04-20T07:22:34.700Z,53.94
2019-04-20T07:23:37.514Z,53.56
2019-04-20T07:24:35.058Z,54.04
2019-04-20T07:25:31.095Z,53.75
2019-04-20T07:26:37.509Z,54.04
2019-04-20T07:27:32.055Z,53.56
2019-04-20T07:28:31.286Z,54.80
2019-04-20T07:29:37.035Z,55.29
2019-04-20T07:30:30.852Z,55.29
2019-04-20T07:31:29.304Z,54.71
2019-04-20T07:32:24.055Z,54.23
2019-04-20T07:33:32.354Z,54.80
2019-04-20T07:34:26.632Z,55.51
2019-04-20T07:35:30.742Z,54.52
2019-04-20T07:36:32.257Z,54.04
2019-04-20T07:39:33.100Z,56.17
2019-04-20T07:40:26.924Z,55.57
2019-04-20T07:41:43.593Z,56.17
2019-04-20T07:42:37.483Z,55.60
2019-04-20T07:44:35.706Z,55.02
2019-04-20T07:45:32.029Z,55.79
2019-04-20T07:46:41.234Z,56.27
2019-04-20T07:47:35.679Z,55.79
2019-04-20T07:48:27.666Z,55.41
2019-04-20T07:50:21.244Z,56.46
2019-04-20T07:51:16.142Z,56.37
2019-04-20T07:52:08.134Z,56.27
2019-04-20T07:53:26.040Z,56.75
2019-04-20T07:54:37.460Z,56.84
2019-04-20T07:56:30.539Z,54.83
2019-04-20T07:57:27.192Z,54.07
2019-04-20T07:58:18.174Z,54.26
2019-04-20T07:59:17.627Z,54.74
2019-04-20T08:00:38.258Z,55.51
2019-04-20T08:01:41.377Z,55.41
2019-04-20T08:02:37.242Z,55.31
2019-04-20T08:03:35.205Z,55.69
2019-04-20T08:04:26.691Z,56.08
2019-04-20T08:05:19.663Z,56.17
2019-04-20T08:06:14.557Z,56.30
2019-04-20T08:07:09.539Z,54.67
2019-04-20T08:08:22.734Z,54.48
2019-04-20T08:09:20.812Z,54.55
2019-04-20T08:10:11.449Z,54.67
2019-04-20T08:11:21.622Z,54.67
2019-04-20T08:12:32.565Z,55.53
2019-04-20T08:13:33.395Z,55.91
2019-04-20T08:14:31.204Z,55.53
2019-04-20T08:15:36.702Z,55.73
2019-04-20T08:16:32.991Z,55.44
2019-04-20T08:17:31.448Z,55.63
2019-04-20T08:19:23.030Z,55.15
2019-04-20T08:20:26.747Z,53.71
2019-04-20T08:21:31.557Z,54.19
2019-04-20T08:22:28.320Z,52.95
2019-04-20T08:23:29.890Z,51.51
2019-04-20T08:24:23.561Z,52.56
2019-04-20T08:25:17.833Z,52.56
2019-04-20T08:26:20.252Z,51.13
2019-04-20T08:28:17.806Z,47.78
2019-04-20T08:29:17.886Z,46.62
2019-04-20T08:31:26.886Z,44.45
2019-04-20T08:32:31.208Z,45.59
2019-04-20T08:34:46.160Z,48.38
2019-04-20T08:35:39.790Z,49.71
2019-04-20T08:37:25.761Z,48.85
2019-04-20T08:39:00.109Z,48.66
2019-04-20T08:39:44.796Z,48.28
2019-04-20T08:40:31.834Z,46.75
2019-04-20T08:41:23.237Z,46.94
2019-04-20T08:42:29.909Z,47.13
2019-04-20T08:43:43.744Z,46.84
2019-04-20T08:45:34.831Z,47.63
2019-04-20T08:46:47.536Z,49.16
2019-04-20T08:47:39.697Z,48.78
2019-04-20T08:48:30.926Z,48.49
2019-04-20T08:49:29.565Z,48.88
2019-04-20T08:50:31.248Z,48.97
2019-04-20T08:51:38.704Z,47.63
2019-04-20T08:52:47.101Z,49.26
2019-04-20T08:53:33.077Z,48.21
2019-04-20T08:54:26.105Z,46.39
2019-04-20T08:55:26.668Z,46.10
2019-04-20T08:56:18.771Z,46.67
2019-04-20T08:57:07.374Z,46.29
2019-04-20T08:58:07.243Z,46.10
2019-04-20T08:59:07.221Z,45.72
2019-04-20T09:00:08.930Z,44.85
2019-04-20T09:01:09.149Z,44.18
2019-04-20T09:02:10.323Z,43.13
2019-04-20T09:03:17.577Z,44.09
2019-04-20T09:04:13.257Z,43.51
2019-04-20T09:05:14.677Z,42.84
2019-04-20T09:06:23.814Z,43.51
2019-04-20T09:07:15.292Z,44.09
2019-04-20T09:08:14.429Z,44.18
2019-04-20T09:09:37.800Z,43.90
2019-04-20T09:10:30.798Z,41.31
2019-04-20T09:11:19.672Z,39.29
2019-04-20T09:12:20.942Z,38.93
2019-04-20T09:13:19.813Z,38.35
2019-04-20T09:14:08.948Z,38.26
2019-04-20T09:15:06.093Z,37.78
2019-04-20T09:16:06.683Z,37.68
2019-04-20T09:17:10.269Z,38.16
2019-04-20T09:18:16.929Z,38.83
2019-04-20T09:19:12.313Z,39.60
2019-04-20T09:20:13.535Z,41.33
2019-04-20T09:21:13.749Z,42.67
2019-04-20T09:22:18.872Z,43.15
2019-04-20T09:23:23.881Z,44.11
2019-04-20T09:24:30.286Z,44.01
2019-04-20T09:25:44.450Z,44.30
2019-04-20T09:26:21.975Z,44.40
2019-04-20T09:27:18.381Z,44.20
2019-04-20T09:28:21.546Z,44.49
2019-04-20T09:29:15.772Z,44.68
2019-04-20T09:30:18.784Z,45.93
2019-04-20T09:31:27.748Z,45.64
2019-04-20T09:32:24.622Z,44.59
2019-04-20T09:33:23.355Z,44.40
2019-04-20T09:34:21.576Z,44.30
2019-04-20T09:35:27.979Z,44.68
2019-04-20T09:36:21.037Z,44.30
2019-04-20T09:37:36.829Z,44.40
2019-04-20T09:38:22.105Z,44.20
2019-04-20T09:39:17.767Z,44.40
2019-04-20T09:40:21.311Z,44.78
2019-04-20T09:41:26.493Z,45.07
2019-04-20T09:42:03.880Z,44.30
2019-04-20T09:43:04.554Z,45.07
2019-04-20T09:44:04.654Z,46.12
2019-04-20T09:45:04.913Z,46.98
2019-04-20T09:46:06.834Z,47.08
2019-04-20T09:47:05.554Z,46.31
2019-04-20T09:48:13.902Z,45.93
2019-04-20T09:49:16.973Z,45.45
2019-04-20T09:50:22.509Z,44.87
2019-04-20T09:51:24.563Z,42.86
2019-04-20T09:52:18.502Z,41.63
2019-04-20T09:53:21.250Z,41.90
2019-04-20T09:54:21.903Z,41.23
2019-04-20T09:55:14.688Z,41.25
2019-04-20T09:56:19.797Z,40.20
2019-04-20T09:57:22.734Z,40.39
2019-04-20T09:58:15.510Z,40.10
2019-04-20T09:59:22.052Z,39.23
2019-04-20T10:00:19.340Z,39.45
2019-04-20T10:01:15.705Z,39.26
2019-04-20T10:02:10.270Z,39.45
2019-04-20T10:03:02.428Z,39.45
2019-04-20T10:04:03.385Z,39.26
2019-04-20T10:05:02.129Z,39.16
2019-04-20T10:06:03.320Z,39.06
2019-04-20T10:07:07.742Z,38.68
2019-04-20T10:08:06.107Z,39.64
2019-04-20T10:09:03.858Z,39.26
2019-04-20T10:10:14.880Z,38.96
2019-04-20T10:11:01.662Z,39.06
2019-04-20T10:12:01.772Z,38.49
2019-04-20T10:13:02.514Z,39.54
2019-04-20T10:14:02.002Z,39.47
2019-04-20T10:15:06.522Z,38.99
2019-04-20T10:16:01.740Z,37.74
2019-04-20T10:17:02.151Z,38.70
2019-04-20T10:18:01.696Z,40.14
2019-04-20T10:19:01.066Z,39.56
2019-04-20T10:20:04.582Z,38.70
2019-04-20T10:21:01.995Z,38.89
2019-04-20T10:22:00.831Z,38.51
2019-04-20T10:23:00.757Z,37.26
2019-04-20T10:24:00.756Z,38.02
2019-04-20T10:25:00.607Z,37.55
2019-04-20T10:26:00.742Z,37.55
2019-04-20T10:27:00.811Z,38.51
2019-04-20T10:28:01.344Z,37.74
2019-04-20T10:29:01.535Z,37.93
2019-04-20T10:30:03.770Z,37.74
2019-04-20T10:31:00.161Z,39.08
2019-04-20T10:32:02.666Z,37.74
2019-04-20T10:33:00.011Z,36.97
2019-04-20T10:33:59.930Z,36.68
2019-04-20T10:34:59.857Z,36.49
2019-04-20T10:35:59.784Z,36.41
2019-04-20T10:36:59.713Z,35.74
2019-04-20T10:37:59.781Z,37.18
2019-04-20T10:39:00.307Z,36.32
2019-04-20T10:40:00.595Z,36.60
2019-04-20T10:41:08.431Z,36.51
2019-04-20T10:42:02.454Z,36.41
2019-04-20T10:43:01.062Z,35.83
2019-04-20T10:43:59.185Z,37.57
2019-04-20T10:45:00.717Z,38.91
2019-04-20T10:46:00.232Z,37.66
2019-04-20T10:46:58.959Z,39.20
2019-04-20T10:47:59.086Z,39.11
2019-04-20T10:49:03.703Z,39.39
2019-04-20T10:49:58.955Z,39.20
2019-04-20T10:50:58.952Z,38.14
2019-04-20T10:51:59.837Z,37.76
2019-04-20T10:52:59.623Z,38.14
2019-04-20T10:53:58.438Z,37.97
2019-04-20T10:54:58.624Z,36.72
2019-04-20T10:55:58.291Z,36.82
2019-04-20T10:56:59.350Z,38.64
2019-04-20T10:57:58.151Z,37.01
2019-04-20T10:58:58.070Z,36.72
2019-04-20T10:59:57.997Z,38.07
2019-04-20T11:00:57.919Z,37.10
2019-04-20T11:01:58.094Z,38.35
2019-04-20T11:02:57.774Z,37.49
2019-04-20T11:03:58.740Z,36.62
2019-04-20T11:04:58.818Z,37.20
2019-04-20T11:05:58.545Z,36.62
2019-04-20T11:06:58.666Z,36.82
2019-04-20T11:07:58.721Z,36.15
2019-04-20T11:08:58.545Z,35.76
2019-04-20T11:10:07.942Z,35.85
2019-04-20T11:11:07.072Z,38.54
2019-04-20T11:11:58.574Z,36.43
2019-04-20T11:12:57.096Z,35.08
2019-04-20T11:13:59.876Z,35.58
2019-04-20T11:14:56.883Z,35.39
2019-04-20T11:15:56.809Z,36.74
2019-04-20T11:16:56.741Z,35.77
2019-04-20T11:17:57.503Z,37.41
2019-04-20T11:18:57.718Z,37.60
2019-04-20T11:19:57.159Z,36.25
2019-04-20T11:20:57.465Z,36.64
2019-04-20T11:21:56.655Z,36.35
2019-04-20T11:22:56.299Z,35.10
2019-04-20T11:23:56.313Z,35.49
2019-04-20T11:24:56.531Z,36.45
2019-04-20T11:25:56.088Z,34.91
2019-04-20T11:26:56.231Z,34.16
2019-04-20T11:27:56.395Z,32.43
2019-04-20T11:28:55.969Z,32.23
2019-04-20T11:29:56.078Z,32.25
2019-04-20T11:30:56.299Z,31.96
2019-04-20T11:31:56.493Z,32.25
2019-04-20T11:32:56.034Z,33.21
2019-04-20T11:33:56.263Z,33.13
2019-04-20T11:34:56.595Z,32.44
2019-04-20T11:35:55.364Z,32.84
2019-04-20T11:36:55.296Z,33.13
2019-04-20T11:37:55.474Z,33.51
2019-04-20T11:38:56.611Z,33.13
2019-04-20T11:39:55.092Z,32.09
2019-04-20T11:41:10.002Z,31.03
2019-04-20T11:41:55.890Z,30.64
2019-04-20T11:42:55.401Z,29.69
2019-04-20T11:43:55.751Z,28.84
2019-04-20T11:44:54.968Z,31.45
2019-04-20T11:45:54.709Z,30.69
2019-04-20T11:46:54.645Z,29.05
2019-04-20T11:47:55.767Z,30.12
2019-04-20T11:48:55.300Z,29.46
2019-04-20T11:49:55.490Z,28.20
2019-04-20T11:50:55.719Z,27.06
2019-04-20T11:51:55.305Z,26.87
2019-04-20T11:52:55.293Z,26.68
2019-04-20T11:53:54.415Z,27.19
2019-04-20T11:54:54.647Z,26.41
2019-04-20T11:55:54.303Z,25.15
2019-04-20T11:56:55.353Z,25.46
2019-04-20T11:57:54.230Z,26.63
2019-04-20T11:58:53.934Z,25.27
2019-04-20T11:59:54.928Z,24.60
2019-04-20T12:01:01.234Z,25.76
2019-04-20T12:01:59.055Z,26.74
2019-04-20T12:02:54.676Z,25.19
2019-04-20T12:04:01.934Z,24.43
2019-04-20T12:05:10.053Z,23.47
2019-04-20T12:05:57.432Z,22.60
2019-04-20T12:06:54.839Z,22.31
2019-04-20T12:07:53.424Z,22.52
2019-04-20T12:08:54.850Z,21.94
2019-04-20T12:09:53.476Z,21.26
2019-04-20T12:10:57.750Z,20.98
2019-04-20T12:12:02.121Z,22.63
2019-04-20T12:12:55.526Z,22.63
2019-04-20T12:13:54.406Z,21.75
2019-04-20T12:14:53.038Z,21.09
2019-04-20T12:15:53.848Z,20.40
2019-04-20T12:16:53.398Z,21.37
2019-04-20T12:17:53.636Z,20.80
2019-04-20T12:18:52.831Z,20.32
2019-04-20T12:19:53.155Z,21.00
2019-04-20T12:20:52.714Z,20.22
2019-04-20T12:21:53.892Z,20.52
2019-04-20T12:22:52.701Z,20.91
2019-04-20T12:23:52.548Z,20.62
2019-04-20T12:24:52.501Z,22.37
2019-04-20T12:25:52.457Z,21.22
2019-04-20T12:26:52.408Z,19.85
2019-04-20T12:27:56.665Z,19.47
2019-04-20T12:28:53.686Z,18.50
2019-04-20T12:29:52.232Z,18.78
2019-04-20T12:30:55.945Z,18.40
2019-04-20T12:31:55.229Z,18.79
2019-04-20T12:32:56.844Z,19.19
2019-04-20T12:33:52.576Z,18.90
2019-04-20T12:34:51.976Z,18.02
2019-04-20T12:35:52.235Z,18.62
2019-04-20T12:36:53.208Z,19.78
2019-04-20T12:37:51.816Z,18.71
2019-04-20T12:38:52.823Z,18.23
2019-04-20T12:39:51.708Z,18.04
2019-04-20T12:40:52.533Z,17.84
2019-04-20T12:41:56.737Z,17.27
2019-04-20T12:42:52.960Z,17.07
2019-04-20T12:43:51.970Z,17.16
2019-04-20T12:44:51.453Z,16.68
2019-04-20T12:45:51.741Z,18.34
2019-04-20T12:46:52.053Z,18.82
2019-04-20T12:47:51.611Z,16.97
2019-04-20T12:48:51.551Z,16.59
2019-04-20T12:49:51.668Z,16.88
2019-04-20T12:50:51.145Z,15.61
2019-04-20T12:51:57.373Z,14.83
2019-04-20T12:52:52.294Z,14.83
2019-04-20T12:53:50.988Z,15.61
2019-04-20T12:54:52.224Z,17.37
2019-04-20T12:55:50.893Z,16.39
2019-04-20T12:56:50.834Z,16.50
2019-04-20T12:57:50.784Z,17.38
2019-04-20T12:58:51.636Z,17.10
2019-04-20T12:59:52.103Z,15.83
2019-04-20T13:00:52.144Z,15.83
2019-04-20T13:01:51.363Z,15.54
2019-04-20T13:02:51.557Z,16.61
2019-04-20T13:03:50.478Z,15.25
2019-04-20T13:04:51.176Z,15.84
2019-04-20T13:05:50.378Z,16.13
2019-04-20T13:06:53.776Z,16.52
2019-04-20T13:07:55.898Z,14.57
2019-04-20T13:08:55.080Z,14.37
2019-04-20T13:09:50.722Z,15.06
2019-04-20T13:10:50.693Z,14.18
2019-04-20T13:11:57.081Z,14.48
2019-04-20T13:12:50.295Z,14.28
2019-04-20T13:13:50.301Z,15.26
2019-04-20T13:14:50.688Z,14.77
2019-04-20T13:15:50.200Z,14.87
2019-04-20T13:16:51.472Z,15.16
2019-04-20T13:17:52.512Z,15.66
2019-04-20T13:18:50.822Z,15.77
2019-04-20T13:19:49.676Z,15.96